Time;durP1;ratioP1;P1;durP2;ratioP2;P2;SDS_P1;SDS_P2;PMS_P1;PMS_P2;Temp;Humidity;BMP_temperature;BMP_pressure;BME280_temperature;BME280_humidity;BME280_pressure;Samples;Min_cycle;Max_cycle;Signal;HPM_P1;HPM_P2
2022/09/18 00:02:38;;;;;;;6.72;1.07;;;;;;;11.09;91.90;99167.02;2837715;82;21552;-89
2022/09/18 00:06:42;;;;;;;13.45;2.22;;;;;;;11.05;91.90;99165.66;2814677;83;21037;-89
2022/09/18 00:10:49;;;;;;;2.52;0.98;;;;;;;11.06;92.88;99162.83;2812902;83;21015;-90
2022/09/18 00:14:48;;;;;;;3.08;1.00;;;;;;;11.11;93.32;99162.36;2824662;81;21070;-89
2022/09/18 00:18:50;;;;;;;8.45;1.67;;;;;;;11.21;93.65;99166.25;2825525;81;21046;-89
2022/09/18 00:22:51;;;;;;;3.67;0.70;;;;;;;11.20;93.53;99161.44;2812441;83;21061;-88
2022/09/18 00:26:52;;;;;;;1.87;0.85;;;;;;;11.19;93.63;99167.73;2813791;83;21062;-89
2022/09/18 00:30:54;;;;;;;1.45;0.60;;;;;;;11.18;94.19;99153.27;2813913;83;21569;-89
2022/09/18 00:34:55;;;;;;;3.25;0.65;;;;;;;11.23;93.04;99160.27;2821235;83;21070;-89
2022/09/18 00:39:01;;;;;;;3.20;1.10;;;;;;;11.35;93.33;99154.17;2817848;83;21046;-89
2022/09/18 00:43:21;;;;;;;1.22;0.57;;;;;;;11.38;93.29;99157.84;2820374;81;20971;-90
2022/09/18 00:47:34;;;;;;;1.80;0.72;;;;;;;11.36;93.56;99155.36;2814837;83;20998;-90
2022/09/18 00:51:36;;;;;;;4.30;0.60;;;;;;;11.34;95.06;99162.67;2813721;83;21446;-90
2022/09/18 00:55:41;;;;;;;3.00;0.40;;;;;;;11.29;96.52;99161.81;2820157;81;21019;-90
2022/09/18 00:59:46;;;;;;;4.87;0.65;;;;;;;11.26;98.13;99151.97;2813369;83;21058;-89
2022/09/18 01:03:47;;;;;;;1.55;0.33;;;;;;;11.26;98.36;99154.14;2820276;83;21550;-89
2022/09/18 01:08:06;;;;;;;0.70;0.28;;;;;;;11.33;98.67;99158.34;2806026;83;21023;-90
2022/09/18 01:12:25;;;;;;;1.22;0.62;;;;;;;11.28;99.27;99160.14;2807152;83;21026;-90
2022/09/18 01:17:03;;;;;;;2.95;0.50;;;;;;;11.34;99.08;99155.17;2820255;83;20995;-89
2022/09/18 01:21:18;;;;;;;0.40;0.40;;;;;;;11.32;99.33;99147.36;2803223;83;21713;-89
2022/09/18 01:26:02;;;;;;;0.65;0.42;;;;;;;11.33;100.00;99150.84;2781751;84;21094;-89
2022/09/18 01:30:07;;;;;;;0.23;0.20;;;;;;;11.23;100.00;99151.80;2762467;84;21167;-89
2022/09/18 01:34:17;;;;;;;2.55;0.75;;;;;;;11.24;100.00;99152.63;2781426;84;21058;-89
2022/09/18 01:38:26;;;;;;;2.40;0.57;;;;;;;11.23;100.00;99153.13;2786592;84;21074;-88
2022/09/18 01:42:30;;;;;;;0.30;0.30;;;;;;;11.34;100.00;99159.16;2778638;84;21097;-90
2022/09/18 01:46:33;;;;;;;0.53;0.30;;;;;;;11.31;100.00;99157.67;2781476;82;21039;-89
2022/09/18 01:50:39;;;;;;;1.60;0.20;;;;;;;11.33;100.00;99161.48;2787947;84;21078;-90
2022/09/18 01:54:44;;;;;;;1.65;0.23;;;;;;;11.33;99.94;99154.83;2781780;84;21058;-90
2022/09/18 01:58:48;;;;;;;0.23;0.23;;;;;;;11.36;99.70;99158.50;2806282;83;21554;-90
2022/09/18 02:02:57;;;;;;;0.75;0.47;;;;;;;11.29;100.00;99157.81;2821388;83;21057;-89
2022/09/18 02:07:04;;;;;;;0.30;0.10;;;;;;;11.29;100.00;99156.97;2821177;83;21089;-90
2022/09/18 02:11:10;;;;;;;0.57;0.30;;;;;;;11.24;100.00;99157.46;2825968;83;21085;-89
2022/09/18 02:15:13;;;;;;;0.47;0.23;;;;;;;11.29;100.00;99151.16;2815381;83;21007;-88
2022/09/18 02:19:23;;;;;;;1.30;0.23;;;;;;;11.33;100.00;99152.17;2764325;85;21145;-90
2022/09/18 02:23:27;;;;;;;0.82;0.33;;;;;;;11.36;100.00;99141.20;2741391;85;21031;-89
2022/09/18 02:27:31;;;;;;;1.10;0.25;;;;;;;11.33;100.00;99137.53;2741749;85;21086;-89
2022/09/18 02:31:33;;;;;;;2.35;0.35;;;;;;;11.35;100.00;99132.39;2736661;85;21047;-89
2022/09/18 02:35:39;;;;;;;0.53;0.20;;;;;;;11.30;100.00;99134.70;2763560;85;21023;-89
2022/09/18 02:39:55;;;;;;;1.05;0.50;;;;;;;11.22;100.00;99129.32;2740856;85;21023;-89
2022/09/18 02:44:05;;;;;;;0.20;0.20;;;;;;;11.18;100.00;99130.13;2724529;85;21115;-89
2022/09/18 02:48:34;;;;;;;2.20;0.45;;;;;;;11.16;100.00;99123.31;2834636;83;20990;-89
2022/09/18 02:52:59;;;;;;;2.83;0.65;;;;;;;11.17;100.00;99123.13;2807668;83;21069;-89
2022/09/18 02:57:18;;;;;;;1.17;0.88;;;;;;;11.16;100.00;99122.80;2764947;84;21592;-90
2022/09/18 03:01:21;;;;;;;1.85;0.68;;;;;;;11.16;100.00;99107.34;2770937;83;21146;-90
2022/09/18 03:05:22;;;;;;;0.60;0.40;;;;;;;11.16;100.00;99117.98;2744797;84;21058;-89
2022/09/18 03:09:24;;;;;;;1.92;0.62;;;;;;;11.18;100.00;99113.34;2765133;84;21031;-90
2022/09/18 03:13:26;;;;;;;1.10;0.55;;;;;;;11.16;100.00;99125.46;2764606;84;21577;-89
2022/09/18 03:17:28;;;;;;;0.70;0.20;;;;;;;11.12;100.00;99124.11;2770616;84;20964;-89
2022/09/18 03:21:29;;;;;;;0.57;0.53;;;;;;;11.08;100.00;99122.25;2781316;84;21586;-89
2022/09/18 03:25:30;;;;;;;2.83;0.47;;;;;;;11.14;100.00;99124.30;2764780;84;21070;-89
2022/09/18 03:29:32;;;;;;;0.68;0.57;;;;;;;11.06;100.00;99128.75;2771864;84;21067;-88
2022/09/18 03:33:33;;;;;;;0.65;0.23;;;;;;;11.09;100.00;99130.58;2819342;83;21042;-88
2022/09/18 03:37:34;;;;;;;4.45;0.88;;;;;;;11.07;100.00;99127.75;2820826;83;21039;-90
2022/09/18 03:41:35;;;;;;;0.62;0.47;;;;;;;11.04;100.00;99126.23;2776636;83;21062;-89
2022/09/18 03:45:37;;;;;;;2.60;0.40;;;;;;;11.13;100.00;99133.77;2821018;83;21360;-89
2022/09/18 03:49:38;;;;;;;1.15;0.30;;;;;;;11.08;100.00;99117.45;2827576;81;21642;-89
2022/09/18 03:53:39;;;;;;;0.95;0.35;;;;;;;11.11;100.00;99123.77;2792977;83;21050;-89
2022/09/18 03:57:40;;;;;;;1.67;0.78;;;;;;;11.15;100.00;99122.46;2820906;83;21081;-89
2022/09/18 04:01:42;;;;;;;0.75;0.72;;;;;;;11.17;100.00;99123.13;2817510;83;21017;-89
2022/09/18 04:05:43;;;;;;;1.10;0.50;;;;;;;11.16;100.00;99126.79;2819787;81;21027;-90
2022/09/18 04:09:44;;;;;;;1.82;0.40;;;;;;;11.17;100.00;99124.47;2761900;83;21009;-88
2022/09/18 04:13:45;;;;;;;2.12;0.82;;;;;;;11.21;100.00;99112.53;2781937;83;21700;-90
2022/09/18 04:17:46;;;;;;;2.30;0.85;;;;;;;11.24;100.00;99116.20;2812855;83;20956;-90
2022/09/18 04:21:48;;;;;;;1.37;0.65;;;;;;;11.21;100.00;99113.86;2810411;83;21612;-89
2022/09/18 04:25:49;;;;;;;1.65;0.88;;;;;;;11.19;100.00;99139.78;2819112;83;21042;-90
2022/09/18 04:29:50;;;;;;;0.40;0.40;;;;;;;11.14;100.00;99132.77;2813476;83;21595;-90
2022/09/18 04:33:51;;;;;;;2.90;2.10;;;;;;;11.02;100.00;99150.02;2820160;82;21065;-89
2022/09/18 04:37:53;;;;;;;1.70;1.60;;;;;;;10.85;100.00;99142.73;2811384;83;21439;-89
2022/09/18 04:41:54;;;;;;;1.70;0.65;;;;;;;10.81;100.00;99137.91;2819523;81;21026;-90
2022/09/18 04:45:56;;;;;;;3.05;2.00;;;;;;;10.84;100.00;99130.94;2819493;81;20998;-89
2022/09/18 04:49:57;;;;;;;1.82;1.72;;;;;;;10.84;100.00;99130.94;2819158;83;21077;-89
2022/09/18 04:53:58;;;;;;;4.55;1.57;;;;;;;10.99;100.00;99141.84;2812609;83;21037;-89
2022/09/18 04:58:00;;;;;;;4.28;2.42;;;;;;;11.08;100.00;99142.73;2819802;81;21850;-89
2022/09/18 05:02:01;;;;;;;6.22;2.15;;;;;;;11.12;100.00;99144.08;2786655;83;21058;-90
2022/09/18 05:06:03;;;;;;;3.80;1.70;;;;;;;11.22;100.00;99143.48;2812997;83;21018;-90
2022/09/18 05:10:07;;;;;;;2.47;2.15;;;;;;;11.31;100.00;99138.19;2836773;82;20968;-90
2022/09/18 05:14:08;;;;;;;2.35;1.95;;;;;;;11.33;100.00;99137.05;2838663;81;21086;-90
2022/09/18 05:18:12;;;;;;;2.22;2.02;;;;;;;11.45;100.00;99140.26;2848597;81;21064;-89
2022/09/18 05:22:13;;;;;;;2.90;2.08;;;;;;;11.43;100.00;99135.59;2821188;81;21105;-89
2022/09/18 05:26:14;;;;;;;2.83;1.85;;;;;;;11.54;100.00;99136.62;2810066;83;21538;-90
2022/09/18 05:30:16;;;;;;;1.95;1.20;;;;;;;11.60;100.00;99138.33;2832961;83;20975;-91
2022/09/18 05:34:17;;;;;;;1.40;1.30;;;;;;;11.56;100.00;99137.30;2809477;83;21043;-89
2022/09/18 05:38:18;;;;;;;1.20;1.10;;;;;;;11.48;100.00;99137.27;2786889;84;21026;-88
2022/09/18 05:42:19;;;;;;;3.80;1.80;;;;;;;11.53;100.00;99133.63;2812475;83;20943;-88
2022/09/18 05:46:21;;;;;;;3.75;1.57;;;;;;;11.50;100.00;99137.94;2771709;83;21055;-90
2022/09/18 05:50:23;;;;;;;2.30;2.12;;;;;;;11.58;100.00;99142.47;2811781;83;21077;-90
2022/09/18 05:54:24;;;;;;;3.35;1.60;;;;;;;11.58;100.00;99143.29;2777608;84;22304;-90
2022/09/18 05:58:26;;;;;;;2.65;2.05;;;;;;;11.63;100.00;99141.48;2803875;83;21015;-90
2022/09/18 06:02:27;;;;;;;2.83;1.52;;;;;;;11.60;100.00;99147.65;2807555;83;21042;-90
2022/09/18 06:06:28;;;;;;;1.00;0.57;;;;;;;11.57;100.00;99144.28;2796590;83;20983;-91
2022/09/18 06:10:32;;;;;;;1.55;0.72;;;;;;;11.50;100.00;99135.28;2813337;83;21037;-90
2022/09/18 06:14:33;;;;;;;1.85;1.10;;;;;;;11.58;100.00;99140.63;2770266;83;21077;-90
2022/09/18 06:18:35;;;;;;;2.58;1.22;;;;;;;11.58;100.00;99146.47;2813274;83;21041;-90
2022/09/18 06:22:36;;;;;;;1.50;0.40;;;;;;;11.66;100.00;99146.48;2813085;83;21047;-90
2022/09/18 06:26:37;;;;;;;0.20;0.20;;;;;;;11.75;100.00;99159.34;2813363;83;21082;-89
2022/09/18 06:30:38;;;;;;;2.50;0.60;;;;;;;11.88;100.00;99167.38;2791554;84;21054;-90
2022/09/18 06:34:40;;;;;;;0.70;0.40;;;;;;;11.94;100.00;99165.39;2787400;83;21050;-90
2022/09/18 06:38:41;;;;;;;0.53;0.42;;;;;;;11.97;100.00;99157.06;2803199;84;21078;-90
2022/09/18 06:42:42;;;;;;;0.40;0.40;;;;;;;12.04;100.00;99166.61;2815548;83;21022;-87
2022/09/18 06:46:44;;;;;;;1.10;0.65;;;;;;;12.10;100.00;99164.66;2810963;83;21046;-89
2022/09/18 06:50:52;;;;;;;1.30;0.85;;;;;;;12.05;100.00;99167.80;2798939;83;21100;-89
2022/09/18 06:54:53;;;;;;;4.40;1.50;;;;;;;12.07;100.00;99171.13;2792270;83;21066;-91
2022/09/18 06:58:54;;;;;;;1.90;0.88;;;;;;;12.10;100.00;99170.80;2785643;83;21069;-90
2022/09/18 07:03:01;;;;;;;3.02;0.93;;;;;;;12.06;100.00;99175.28;2801637;83;21046;-90
2022/09/18 07:07:03;;;;;;;0.42;0.30;;;;;;;12.08;100.00;99171.95;2777348;83;21022;-90
2022/09/18 07:11:04;;;;;;;0.55;0.20;;;;;;;12.08;100.00;99163.95;2807475;83;21018;-90
2022/09/18 07:15:06;;;;;;;0.20;0.20;;;;;;;12.20;100.00;99172.50;2748047;83;21010;-90
2022/09/18 07:19:07;;;;;;;2.75;0.47;;;;;;;12.39;100.00;99169.53;2806894;83;21565;-91
2022/09/18 07:23:08;;;;;;;0.10;0.10;;;;;;;12.28;100.00;99175.17;2785410;84;21057;-91
2022/09/18 07:27:10;;;;;;;0.08;0.08;;;;;;;12.17;100.00;99186.13;2800506;83;21478;-90
2022/09/18 07:31:11;;;;;;;0.20;0.20;;;;;;;11.91;100.00;99193.70;2781270;83;21053;-90
2022/09/18 07:35:13;;;;;;;0.37;0.20;;;;;;;11.80;100.00;99196.16;2807005;83;21038;-90
2022/09/18 07:39:14;;;;;;;0.88;0.33;;;;;;;11.64;100.00;99204.41;2768759;83;21049;-89
2022/09/18 07:43:15;;;;;;;0.25;0.25;;;;;;;11.49;100.00;99219.31;2782265;83;21089;-87
2022/09/18 07:47:16;;;;;;;0.30;0.20;;;;;;;11.24;100.00;99221.35;2797590;83;21010;-91
2022/09/18 07:51:18;;;;;;;0.20;0.20;;;;;;;11.27;100.00;99229.50;2788654;83;20987;-88
2022/09/18 07:55:20;;;;;;;0.60;0.40;;;;;;;11.25;100.00;99228.83;2776687;83;21691;-91
2022/09/18 07:59:22;;;;;;;0.80;0.33;;;;;;;11.22;100.00;99233.13;2776600;83;21102;-90
2022/09/18 08:03:24;;;;;;;0.78;0.60;;;;;;;11.23;100.00;99254.77;2787311;83;21046;-91
2022/09/18 08:07:25;;;;;;;1.72;1.15;;;;;;;11.40;100.00;99248.56;2803033;83;21074;-90
2022/09/18 08:11:27;;;;;;;1.02;0.60;;;;;;;11.65;100.00;99257.20;2785676;84;20999;-91
2022/09/18 08:15:29;;;;;;;0.33;0.33;;;;;;;11.77;100.00;99245.77;2789110;83;21101;-90
2022/09/18 08:19:30;;;;;;;0.68;0.40;;;;;;;11.91;100.00;99256.32;2813077;84;21380;-91
2022/09/18 08:23:32;;;;;;;1.60;0.68;;;;;;;11.89;100.00;99260.98;2784039;84;21720;-86
2022/09/18 08:27:38;;;;;;;1.05;0.95;;;;;;;11.83;100.00;99263.78;2806678;83;21022;-91
2022/09/18 08:31:40;;;;;;;0.95;0.57;;;;;;;11.84;100.00;99271.63;2788288;83;21034;-90
2022/09/18 08:35:41;;;;;;;0.47;0.30;;;;;;;11.69;100.00;99282.53;2760444;84;20990;-89
2022/09/18 08:39:42;;;;;;;2.05;0.72;;;;;;;11.66;100.00;99284.18;2814234;83;21018;-90
2022/09/18 08:44:01;;;;;;;0.10;0.10;;;;;;;11.69;100.00;99279.86;2789646;83;21031;-90
2022/09/18 08:48:11;;;;;;;0.90;0.68;;;;;;;11.54;100.00;99286.27;2791249;83;21002;-91
2022/09/18 08:52:17;;;;;;;0.53;0.42;;;;;;;11.64;100.00;99300.81;2783694;84;21062;-88
2022/09/18 08:56:22;;;;;;;1.65;0.62;;;;;;;11.54;100.00;99305.73;2813940;83;20975;-90
2022/09/18 09:00:44;;;;;;;3.72;1.05;;;;;;;11.32;100.00;99302.25;2811928;84;21049;-90
2022/09/18 09:04:46;;;;;;;4.37;1.60;;;;;;;11.20;100.00;99308.32;2759660;84;21087;-90
2022/09/18 09:08:59;;;;;;;1.95;1.17;;;;;;;11.12;100.00;99313.92;2776982;84;21029;-89
2022/09/18 09:13:51;;;;;;;3.85;2.60;;;;;;;11.12;100.00;99302.43;2745469;85;21047;-87
2022/09/18 09:18:15;;;;;;;8.85;3.58;;;;;;;11.22;100.00;99320.50;2706368;86;21042;-86
2022/09/18 09:22:24;;;;;;;7.30;3.60;;;;;;;11.23;100.00;99307.53;2700385;86;21071;-88
2022/09/18 09:26:26;;;;;;;4.58;3.15;;;;;;;11.26;100.00;99325.84;2633854;87;21426;-90
2022/09/18 09:30:31;;;;;;;5.78;2.33;;;;;;;11.34;100.00;99313.58;2689554;86;21554;-90
2022/09/18 09:34:43;;;;;;;5.33;3.15;;;;;;;11.47;100.00;99335.33;2695670;86;21436;-90
2022/09/18 09:39:16;;;;;;;3.58;2.30;;;;;;;11.37;100.00;99330.57;2697737;86;21062;-90
2022/09/18 09:43:33;;;;;;;4.97;3.35;;;;;;;11.27;100.00;99339.50;2670543;87;21047;-89
2022/09/18 09:47:51;;;;;;;8.93;3.45;;;;;;;11.30;100.00;99349.02;2690763;87;21093;-89
2022/09/18 09:52:03;;;;;;;3.92;2.40;;;;;;;11.25;100.00;99337.48;2705254;87;21644;-88
2022/09/18 09:56:30;;;;;;;5.37;2.72;;;;;;;11.25;100.00;99333.49;2659085;88;21062;-89
2022/09/18 10:00:40;;;;;;;4.72;2.35;;;;;;;11.26;100.00;99351.14;2621267;89;21109;-89
2022/09/18 10:05:17;;;;;;;5.70;2.83;;;;;;;11.44;100.00;99362.27;2726869;86;21585;-89
2022/09/18 10:09:50;;;;;;;4.87;2.58;;;;;;;11.56;100.00;99369.00;2680810;87;21851;-90
2022/09/18 10:14:17;;;;;;;7.30;3.40;;;;;;;11.77;100.00;99372.33;2698647;86;22081;-90
2022/09/18 10:18:29;;;;;;;9.80;3.30;;;;;;;11.91;100.00;99369.09;2743627;84;21716;-88
2022/09/18 10:22:34;;;;;;;7.33;2.33;;;;;;;12.12;100.00;99336.74;2782755;83;21622;-91
2022/09/18 10:26:45;;;;;;;8.05;2.40;;;;;;;12.34;100.00;99359.83;2820776;83;21435;-90
2022/09/18 10:31:11;;;;;;;7.65;2.45;;;;;;;12.84;100.00;99357.34;2819939;83;21014;-90
2022/09/18 10:35:41;;;;;;;6.30;3.10;;;;;;;13.04;98.69;99378.41;2794627;83;20998;-88
2022/09/18 10:39:50;;;;;;;10.00;4.00;;;;;;;13.26;96.46;99372.91;2795332;83;21073;-89
2022/09/18 10:43:59;;;;;;;10.72;3.20;;;;;;;13.38;97.52;99370.77;2783192;83;21057;-89
2022/09/18 10:48:12;;;;;;;6.37;1.80;;;;;;;13.18;91.80;99385.77;2771145;84;21601;-91
2022/09/18 10:52:28;;;;;;;9.30;3.35;;;;;;;12.94;94.94;99390.05;2810218;83;21053;-86
2022/09/18 10:56:31;;;;;;;12.33;2.15;;;;;;;12.96;96.59;99377.36;2820594;83;21530;-90
2022/09/18 11:00:40;;;;;;;13.88;2.42;;;;;;;12.91;93.77;99386.89;2795035;83;21061;-86
2022/09/18 11:04:46;;;;;;;5.72;2.98;;;;;;;12.95;91.29;99377.03;2790632;82;21542;-88
2022/09/18 11:08:51;;;;;;;4.97;2.22;;;;;;;13.16;93.16;99382.41;2801112;83;21082;-91
2022/09/18 11:12:59;;;;;;;8.08;2.65;;;;;;;13.41;91.16;99365.91;2820442;82;21068;-88
2022/09/18 11:17:01;;;;;;;3.75;2.27;;;;;;;13.60;87.18;99369.78;2820258;83;21037;-91
2022/09/18 11:21:05;;;;;;;14.10;2.90;;;;;;;13.43;89.44;99365.27;2799871;82;21533;-90
2022/09/18 11:25:21;;;;;;;7.85;2.60;;;;;;;13.17;89.46;99365.90;2800476;84;21017;-89
2022/09/18 11:29:38;;;;;;;3.77;0.98;;;;;;;12.98;93.61;99371.39;2824139;83;21807;-91
2022/09/18 11:33:51;;;;;;;6.30;1.57;;;;;;;12.66;94.90;99401.47;2814146;83;21100;-90
2022/09/18 11:37:57;;;;;;;9.68;3.40;;;;;;;12.56;97.96;99385.11;2827814;82;21074;-90
2022/09/18 11:41:59;;;;;;;10.35;3.30;;;;;;;12.92;97.83;99367.20;2809872;82;21604;-89
2022/09/18 11:46:45;;;;;;;5.35;2.17;;;;;;;13.26;93.16;99351.05;2823588;82;21073;-90
2022/09/18 11:50:48;;;;;;;5.95;2.55;;;;;;;13.50;92.55;99348.06;2808403;83;21108;-90
2022/09/18 11:55:00;;;;;;;3.72;2.30;;;;;;;13.82;92.51;99361.07;2813750;84;21049;-89
2022/09/18 11:59:13;;;;;;;6.80;2.90;;;;;;;14.12;92.72;99359.16;2832645;82;21640;-90
2022/09/18 12:03:19;;;;;;;7.62;1.92;;;;;;;14.42;88.58;99352.20;2803486;82;21014;-90
2022/09/18 12:07:48;;;;;;;6.45;1.82;;;;;;;14.22;85.18;99350.94;2809854;82;21069;-87
2022/09/18 12:12:22;;;;;;;3.45;1.85;;;;;;;14.42;86.07;99348.67;2828945;82;21684;-90
2022/09/18 12:16:52;;;;;;;5.97;1.55;;;;;;;14.66;84.58;99353.08;2833055;82;21143;-87
2022/09/18 12:20:58;;;;;;;3.95;1.55;;;;;;;14.58;80.67;99346.45;2823820;82;21116;-89
2022/09/18 12:24:59;;;;;;;4.28;1.55;;;;;;;14.60;82.04;99356.95;2821038;82;21061;-90
2022/09/18 12:29:21;;;;;;;6.28;1.65;;;;;;;14.87;84.28;99351.66;2831944;82;21569;-92
2022/09/18 12:33:31;;;;;;;2.22;1.55;;;;;;;14.96;82.75;99346.59;2827903;82;21037;-90
2022/09/18 12:37:49;;;;;;;8.95;1.52;;;;;;;15.04;78.27;99353.74;2825240;82;21022;-88
2022/09/18 12:42:20;;;;;;;4.20;1.62;;;;;;;14.77;74.84;99352.41;2805922;82;20970;-89
2022/09/18 12:46:42;;;;;;;7.45;1.45;;;;;;;14.77;75.84;99363.11;2811582;82;21612;-89
2022/09/18 12:51:02;;;;;;;3.45;1.27;;;;;;;14.81;76.31;99347.02;2830231;82;21155;-91
2022/09/18 12:55:14;;;;;;;4.70;1.35;;;;;;;14.98;77.44;99349.92;2832370;82;21053;-90
2022/09/18 12:59:30;;;;;;;6.08;3.12;;;;;;;15.25;76.38;99338.34;2828670;82;21525;-90
2022/09/18 13:03:36;;;;;;;5.17;1.85;;;;;;;15.28;76.24;99353.23;2730512;85;21084;-91
2022/09/18 13:07:48;;;;;;;6.00;1.57;;;;;;;15.44;74.78;99349.57;2775092;83;21026;-90
2022/09/18 13:12:01;;;;;;;5.72;2.30;;;;;;;15.56;74.33;99353.50;2790875;82;21081;-90
2022/09/18 13:16:28;;;;;;;6.37;1.85;;;;;;;15.81;76.06;99337.16;2813942;84;21538;-90
2022/09/18 13:20:38;;;;;;;;;;;;;;;15.88;72.62;99343.13;2784973;83;21094;-92
2022/09/18 13:24:43;;;;;;;4.70;1.42;;;;;;;15.79;71.34;99331.66;2813185;83;20110;-90
2022/09/18 13:28:44;;;;;;;2.17;1.00;;;;;;;15.22;72.26;99338.70;2797739;83;21027;-91
2022/09/18 13:32:46;;;;;;;3.87;1.02;;;;;;;15.11;74.11;99341.78;2782921;83;21065;-92
2022/09/18 13:36:47;;;;;;;2.98;0.85;;;;;;;15.16;74.23;99345.27;2791799;84;21521;-90
2022/09/18 13:41:02;;;;;;;4.25;0.85;;;;;;;15.21;73.67;99339.72;2809892;83;21006;-90
2022/09/18 13:45:23;;;;;;;1.60;1.30;;;;;;;14.96;72.58;99332.36;2814295;84;21507;-89
2022/09/18 13:49:32;;;;;;;3.37;1.57;;;;;;;14.87;73.94;99340.95;2775544;83;21171;-91
2022/09/18 13:53:40;;;;;;;2.12;0.80;;;;;;;14.60;77.69;99347.10;2805415;83;21038;-90
2022/09/18 13:57:43;;;;;;;4.47;0.95;;;;;;;14.32;79.65;99346.20;2799190;83;21069;-89
2022/09/18 14:01:56;;;;;;;4.30;1.07;;;;;;;14.32;86.04;99352.89;2788359;84;21085;-91
2022/09/18 14:05:57;;;;;;;9.75;2.02;;;;;;;14.47;83.96;99342.81;2766273;84;21045;-90
2022/09/18 14:10:05;;;;;;;5.12;1.80;;;;;;;14.49;82.85;99340.30;2741284;84;21095;-90
2022/09/18 14:14:10;;;;;;;2.92;0.78;;;;;;;14.73;83.12;99337.19;2770047;83;21139;-90
2022/09/18 14:18:20;;;;;;;3.22;0.95;;;;;;;14.86;74.24;99317.86;2757518;84;21049;-90
2022/09/18 14:22:26;;;;;;;2.17;0.88;;;;;;;15.08;72.46;99326.92;2759159;82;21025;-91
2022/09/18 14:26:36;;;;;;;11.60;1.80;;;;;;;15.51;77.90;99333.61;2834254;82;21903;-91
2022/09/18 14:30:37;;;;;;;4.40;1.60;;;;;;;15.51;74.71;99322.89;2817498;82;21584;-90
2022/09/18 14:34:43;;;;;;;3.95;0.72;;;;;;;15.72;78.30;99314.13;2813144;82;21063;-92
2022/09/18 14:38:44;;;;;;;4.28;1.15;;;;;;;16.11;75.63;99317.11;2832156;82;21076;-90
2022/09/18 14:42:47;;;;;;;3.95;0.62;;;;;;;16.24;72.30;99312.91;2807035;82;21022;-90
2022/09/18 14:46:58;;;;;;;5.33;1.02;;;;;;;16.22;73.82;99308.25;2778031;83;21013;-90
2022/09/18 14:51:08;;;;;;;4.50;0.78;;;;;;;16.27;74.62;99305.83;2839560;82;21040;-91
2022/09/18 14:55:21;;;;;;;2.25;1.45;;;;;;;16.20;70.56;99300.90;2817726;82;21084;-90
2022/09/18 14:59:24;;;;;;;3.08;1.35;;;;;;;16.04;72.04;99318.03;2808616;83;20990;-90
2022/09/18 15:03:31;;;;;;;3.37;1.15;;;;;;;15.82;69.80;99314.70;2826678;82;21028;-90
2022/09/18 15:07:33;;;;;;;1.70;0.75;;;;;;;15.65;71.73;99317.22;2835102;82;21073;-90
2022/09/18 15:11:35;;;;;;;1.55;0.93;;;;;;;15.49;70.99;99315.02;2802094;82;21081;-90
2022/09/18 15:15:38;;;;;;;2.60;0.80;;;;;;;15.37;69.73;99315.14;2824360;82;21022;-91
2022/09/18 15:19:40;;;;;;;0.82;0.50;;;;;;;15.20;69.85;99316.63;2815179;81;21049;-90
2022/09/18 15:23:41;;;;;;;5.10;1.60;;;;;;;15.23;70.84;99324.78;2837086;82;21061;-90
2022/09/18 15:27:44;;;;;;;6.45;0.85;;;;;;;15.25;71.22;99324.94;2826769;82;21013;-89
2022/09/18 15:31:45;;;;;;;1.20;0.70;;;;;;;15.25;72.14;99327.62;2820099;82;21011;-89
2022/09/18 15:35:51;;;;;;;6.83;0.80;;;;;;;15.19;72.59;99323.48;2837657;82;21021;-88
2022/09/18 15:40:17;;;;;;;1.52;0.95;;;;;;;15.09;70.96;99327.25;2843795;82;21565;-88
2022/09/18 15:44:42;;;;;;;1.77;0.70;;;;;;;14.78;73.24;99336.67;2802288;82;21072;-90
2022/09/18 15:48:49;;;;;;;1.42;0.88;;;;;;;14.38;72.10;99325.47;2800029;82;21026;-91
2022/09/18 15:53:02;;;;;;;2.35;1.17;;;;;;;14.18;73.81;99332.24;2819888;82;21003;-89
2022/09/18 15:57:04;;;;;;;3.80;1.12;;;;;;;14.03;74.82;99339.63;2828464;82;21012;-90
2022/09/18 16:01:15;;;;;;;3.20;1.25;;;;;;;14.03;79.27;99342.31;2813500;82;21595;-90
2022/09/18 16:05:17;;;;;;;3.80;1.20;;;;;;;14.01;79.94;99340.31;2839222;82;22382;-89
2022/09/18 16:09:39;;;;;;;1.90;1.00;;;;;;;13.96;79.45;99343.49;2843031;82;20998;-89
2022/09/18 16:13:40;;;;;;;4.85;1.45;;;;;;;13.85;80.42;99354.05;2819244;82;21078;-90
2022/09/18 16:17:57;;;;;;;1.57;1.37;;;;;;;13.22;89.17;99376.42;2828968;82;21636;-90
2022/09/18 16:22:04;;;;;;;1.27;0.30;;;;;;;12.74;92.53;99392.66;2819015;82;21059;-90
2022/09/18 16:26:29;;;;;;;0.98;0.33;;;;;;;12.26;93.86;99377.14;2752353;84;21120;-90
2022/09/18 16:30:32;;;;;;;1.22;0.68;;;;;;;12.16;94.02;99380.41;2824004;82;20993;-90
2022/09/18 16:34:33;;;;;;;1.07;0.45;;;;;;;12.07;95.37;99373.70;2817796;82;21618;-89
2022/09/18 16:38:35;;;;;;;1.45;0.40;;;;;;;11.98;95.91;99355.95;2809697;82;21093;-90
2022/09/18 16:42:36;;;;;;;1.67;0.50;;;;;;;11.93;96.49;99363.59;2820755;82;20998;-90
2022/09/18 16:46:51;;;;;;;1.15;0.90;;;;;;;11.92;96.44;99365.92;2819243;82;20998;-89
2022/09/18 16:50:53;;;;;;;2.33;0.82;;;;;;;11.80;96.66;99356.88;2839044;82;21033;-90
2022/09/18 16:54:54;;;;;;;2.47;1.17;;;;;;;11.71;98.37;99359.98;2842683;82;21069;-89
2022/09/18 16:58:57;;;;;;;5.05;1.22;;;;;;;11.65;98.91;99357.91;2843522;82;20986;-90
2022/09/18 17:02:59;;;;;;;1.95;0.98;;;;;;;11.47;100.00;99348.64;2814171;82;21101;-89
2022/09/18 17:07:00;;;;;;;1.95;0.78;;;;;;;11.48;100.00;99349.45;2822435;81;21109;-89
2022/09/18 17:11:02;;;;;;;2.55;0.60;;;;;;;11.51;100.00;99364.64;2823240;81;21077;-90
2022/09/18 17:15:06;;;;;;;2.12;0.90;;;;;;;11.55;100.00;99367.33;2797701;84;21551;-89
2022/09/18 17:19:08;;;;;;;1.77;0.93;;;;;;;11.58;100.00;99365.69;2816550;83;21048;-89
2022/09/18 17:23:09;;;;;;;1.10;0.78;;;;;;;11.62;100.00;99368.06;2817262;83;21038;-90
2022/09/18 17:27:11;;;;;;;4.37;1.70;;;;;;;11.67;100.00;99359.10;2815419;83;21010;-89
2022/09/18 17:31:18;;;;;;;3.27;1.65;;;;;;;11.70;100.00;99366.30;2818230;83;21042;-89
2022/09/18 17:35:20;;;;;;;1.17;0.85;;;;;;;11.79;100.00;99365.86;2845512;81;21010;-88
2022/09/18 17:39:21;;;;;;;0.85;0.62;;;;;;;11.79;100.00;99367.19;2803963;81;21367;-89
2022/09/18 17:43:23;;;;;;;2.83;1.15;;;;;;;11.83;100.00;99360.55;2817520;83;20987;-89
2022/09/18 17:47:25;;;;;;;3.00;1.20;;;;;;;11.74;100.00;99358.81;2829209;82;21041;-90
2022/09/18 17:51:27;;;;;;;1.62;1.22;;;;;;;11.74;100.00;99358.81;2824106;83;21557;-90
2022/09/18 17:55:30;;;;;;;1.87;1.00;;;;;;;11.71;100.00;99363.13;2816781;83;21170;-90
2022/09/18 17:59:31;;;;;;;1.77;1.05;;;;;;;11.65;100.00;99365.09;2816671;83;21133;-90
2022/09/18 18:03:33;;;;;;;4.25;1.00;;;;;;;11.68;100.00;99363.44;2817207;83;21578;-90
2022/09/18 18:07:34;;;;;;;4.20;0.88;;;;;;;11.68;100.00;99359.44;2817056;83;21023;-90
2022/09/18 18:11:36;;;;;;;1.00;0.75;;;;;;;11.72;100.00;99372.78;2815446;83;21581;-89
2022/09/18 18:15:38;;;;;;;2.17;1.10;;;;;;;11.68;100.00;99365.59;2817374;83;21046;-90
2022/09/18 18:19:39;;;;;;;3.45;1.05;;;;;;;11.70;100.00;99373.44;2779775;83;21085;-89
2022/09/18 18:23:41;;;;;;;4.08;1.15;;;;;;;11.66;100.00;99362.25;2824084;83;21032;-89
2022/09/18 18:27:42;;;;;;;1.70;0.70;;;;;;;11.69;100.00;99370.44;2833783;82;21069;-90
2022/09/18 18:31:44;;;;;;;1.20;1.05;;;;;;;11.75;100.00;99373.80;2840244;82;21065;-90
2022/09/18 18:35:45;;;;;;;1.55;0.90;;;;;;;11.73;100.00;99377.12;2857273;82;21018;-90
2022/09/18 18:39:47;;;;;;;1.25;0.85;;;;;;;11.70;100.00;99376.95;2833810;82;21017;-89
2022/09/18 18:43:54;;;;;;;0.95;0.78;;;;;;;11.68;100.00;99378.91;2833679;82;21018;-90
2022/09/18 18:47:56;;;;;;;5.10;1.32;;;;;;;11.72;100.00;99375.45;2824795;82;21079;-90
2022/09/18 18:51:58;;;;;;;1.12;0.55;;;;;;;11.71;100.00;99376.44;2815928;83;21018;-89
2022/09/18 18:56:06;;;;;;;2.30;0.80;;;;;;;11.65;100.00;99377.89;2822174;83;21033;-89
2022/09/18 19:00:09;;;;;;;1.32;0.80;;;;;;;11.60;100.00;99378.05;2797536;83;21053;-90
2022/09/18 19:04:15;;;;;;;1.22;1.10;;;;;;;11.63;100.00;99377.73;2840790;82;21562;-89
2022/09/18 19:08:17;;;;;;;0.75;0.75;;;;;;;11.64;100.00;99386.05;2786400;83;21045;-89
2022/09/18 19:12:19;;;;;;;0.88;0.42;;;;;;;11.70;100.00;99374.77;2817172;83;21068;-90
2022/09/18 19:16:21;;;;;;;2.58;0.40;;;;;;;11.71;100.00;99363.13;2818934;83;21491;-90